sensor_id;sensor_type;location;lat;lon;timestamp;temperature;humidity
14057;DHT22;7103;54.300;10.180;2022-10-16T00:00:57;13.60;1.00
14057;DHT22;7103;54.300;10.180;2022-10-16T00:03:24;13.60;1.00
14057;DHT22;7103;54.300;10.180;2022-10-16T00:05:59;13.50;1.00
14057;DHT22;7103;54.300;10.180;2022-10-16T00:08:27;13.50;1.00
14057;DHT22;7103;54.300;10.180;2022-10-16T00:10:59;13.50;1.00
14057;DHT22;7103;54.300;10.180;2022-10-16T00:13:28;13.40;1.00
14057;DHT22;7103;54.300;10.180;2022-10-16T00:15:56;13.40;1.00
14057;DHT22;7103;54.300;10.180;2022-10-16T00:18:24;13.40;1.00
14057;DHT22;7103;54.300;10.180;2022-10-16T00:20:52;13.50;1.00
14057;DHT22;7103;54.300;10.180;2022-10-16T00:23:19;13.40;1.00
14057;DHT22;7103;54.300;10.180;2022-10-16T00:25:56;13.40;1.00
14057;DHT22;7103;54.300;10.180;2022-10-16T00:28:24;13.40;1.00
14057;DHT22;7103;54.300;10.180;2022-10-16T00:30:51;13.40;1.00
14057;DHT22;7103;54.300;10.180;2022-10-16T00:33:18;13.40;1.00
14057;DHT22;7103;54.300;10.180;2022-10-16T00:35:45;13.30;1.00
14057;DHT22;7103;54.300;10.180;2022-10-16T00:38:12;13.20;1.00
14057;DHT22;7103;54.300;10.180;2022-10-16T00:40:40;13.20;1.00
14057;DHT22;7103;54.300;10.180;2022-10-16T00:43:46;13.30;1.00
14057;DHT22;7103;54.300;10.180;2022-10-16T00:48:42;13.30;1.00
14057;DHT22;7103;54.300;10.180;2022-10-16T00:51:11;13.20;1.00
14057;DHT22;7103;54.300;10.180;2022-10-16T00:53:38;13.20;1.00
14057;DHT22;7103;54.300;10.180;2022-10-16T00:56:05;13.10;1.00
14057;DHT22;7103;54.300;10.180;2022-10-16T00:58:32;13.10;1.00
14057;DHT22;7103;54.300;10.180;2022-10-16T01:00:59;13.10;1.00
14057;DHT22;7103;54.300;10.180;2022-10-16T01:03:32;13.20;1.00
14057;DHT22;7103;54.300;10.180;2022-10-16T01:08:37;13.20;1.00
14057;DHT22;7103;54.300;10.180;2022-10-16T01:11:15;13.20;1.00
14057;DHT22;7103;54.300;10.180;2022-10-16T01:13:48;13.20;1.00
14057;DHT22;7103;54.300;10.180;2022-10-16T01:16:32;13.10;1.00
14057;DHT22;7103;54.300;10.180;2022-10-16T01:19:36;13.10;1.00
14057;DHT22;7103;54.300;10.180;2022-10-16T01:22:06;13.10;1.00
14057;DHT22;7103;54.300;10.180;2022-10-16T01:24:38;13.20;1.00
14057;DHT22;7103;54.300;10.180;2022-10-16T01:27:16;13.20;1.00
14057;DHT22;7103;54.300;10.180;2022-10-16T01:29:56;13.20;1.00
14057;DHT22;7103;54.300;10.180;2022-10-16T01:32:40;13.10;1.00
14057;DHT22;7103;54.300;10.180;2022-10-16T01:35:16;13.20;1.00
14057;DHT22;7103;54.300;10.180;2022-10-16T01:37:50;13.20;1.00
14057;DHT22;7103;54.300;10.180;2022-10-16T01:40:20;13.10;1.00
14057;DHT22;7103;54.300;10.180;2022-10-16T01:42:56;13.10;1.00
14057;DHT22;7103;54.300;10.180;2022-10-16T01:45:26;13.10;1.00
14057;DHT22;7103;54.300;10.180;2022-10-16T01:47:55;13.10;1.00
14057;DHT22;7103;54.300;10.180;2022-10-16T01:50:23;13.20;1.00
14057;DHT22;7103;54.300;10.180;2022-10-16T01:52:52;13.20;1.00
14057;DHT22;7103;54.300;10.180;2022-10-16T01:55:33;13.10;1.00
14057;DHT22;7103;54.300;10.180;2022-10-16T01:58:05;13.10;1.00
14057;DHT22;7103;54.300;10.180;2022-10-16T02:00:34;13.30;1.00
14057;DHT22;7103;54.300;10.180;2022-10-16T02:03:04;13.20;1.00
14057;DHT22;7103;54.300;10.180;2022-10-16T02:05:41;13.20;1.00
14057;DHT22;7103;54.300;10.180;2022-10-16T02:08:10;13.10;1.00
14057;DHT22;7103;54.300;10.180;2022-10-16T02:10:37;13.20;1.00
14057;DHT22;7103;54.300;10.180;2022-10-16T02:15:44;13.20;1.00
14057;DHT22;7103;54.300;10.180;2022-10-16T02:18:11;13.20;1.00
14057;DHT22;7103;54.300;10.180;2022-10-16T02:23:45;13.20;1.00
14057;DHT22;7103;54.300;10.180;2022-10-16T02:26:16;13.10;1.00
14057;DHT22;7103;54.300;10.180;2022-10-16T02:28:52;13.20;1.00
14057;DHT22;7103;54.300;10.180;2022-10-16T02:31:26;13.10;1.00
14057;DHT22;7103;54.300;10.180;2022-10-16T02:33:58;13.10;1.00
14057;DHT22;7103;54.300;10.180;2022-10-16T02:36:26;13.10;1.00
14057;DHT22;7103;54.300;10.180;2022-10-16T02:38:54;13.10;1.00
14057;DHT22;7103;54.300;10.180;2022-10-16T02:41:22;13.10;1.00
14057;DHT22;7103;54.300;10.180;2022-10-16T02:43:49;13.10;1.00
14057;DHT22;7103;54.300;10.180;2022-10-16T02:46:17;13.10;1.00
14057;DHT22;7103;54.300;10.180;2022-10-16T02:48:44;13.10;1.00
14057;DHT22;7103;54.300;10.180;2022-10-16T02:51:11;13.10;1.00
14057;DHT22;7103;54.300;10.180;2022-10-16T02:53:38;13.10;1.00
14057;DHT22;7103;54.300;10.180;2022-10-16T02:56:05;13.20;1.00
14057;DHT22;7103;54.300;10.180;2022-10-16T02:58:32;13.10;1.00
14057;DHT22;7103;54.300;10.180;2022-10-16T03:00:59;13.10;1.00
14057;DHT22;7103;54.300;10.180;2022-10-16T03:03:26;13.10;1.00
14057;DHT22;7103;54.300;10.180;2022-10-16T03:05:52;13.00;1.00
14057;DHT22;7103;54.300;10.180;2022-10-16T03:08:19;13.00;1.00
14057;DHT22;7103;54.300;10.180;2022-10-16T03:10:50;13.10;1.00
14057;DHT22;7103;54.300;10.180;2022-10-16T03:13:17;13.00;1.00
14057;DHT22;7103;54.300;10.180;2022-10-16T03:15:47;12.90;1.00
14057;DHT22;7103;54.300;10.180;2022-10-16T03:18:14;12.90;1.00
14057;DHT22;7103;54.300;10.180;2022-10-16T03:20:42;12.80;1.00
14057;DHT22;7103;54.300;10.180;2022-10-16T03:23:09;12.80;1.00
14057;DHT22;7103;54.300;10.180;2022-10-16T03:25:36;12.80;1.00
14057;DHT22;7103;54.300;10.180;2022-10-16T03:28:03;12.80;1.00
14057;DHT22;7103;54.300;10.180;2022-10-16T03:30:30;12.90;1.00
14057;DHT22;7103;54.300;10.180;2022-10-16T03:32:57;12.80;1.00
14057;DHT22;7103;54.300;10.180;2022-10-16T03:35:24;12.70;1.00
14057;DHT22;7103;54.300;10.180;2022-10-16T03:37:51;12.70;1.00
14057;DHT22;7103;54.300;10.180;2022-10-16T03:40:19;12.60;1.00
14057;DHT22;7103;54.300;10.180;2022-10-16T03:42:46;12.60;1.00
14057;DHT22;7103;54.300;10.180;2022-10-16T03:45:13;12.70;1.00
14057;DHT22;7103;54.300;10.180;2022-10-16T03:47:40;12.60;1.00
14057;DHT22;7103;54.300;10.180;2022-10-16T03:50:08;12.70;1.00
14057;DHT22;7103;54.300;10.180;2022-10-16T03:52:35;12.70;1.00
14057;DHT22;7103;54.300;10.180;2022-10-16T03:55:02;12.60;1.00
14057;DHT22;7103;54.300;10.180;2022-10-16T03:57:29;12.60;1.00
14057;DHT22;7103;54.300;10.180;2022-10-16T03:59:56;12.60;1.00
14057;DHT22;7103;54.300;10.180;2022-10-16T04:02:22;12.70;1.00
14057;DHT22;7103;54.300;10.180;2022-10-16T04:04:49;12.70;99.90
14057;DHT22;7103;54.300;10.180;2022-10-16T04:07:16;12.60;99.90
14057;DHT22;7103;54.300;10.180;2022-10-16T04:09:43;12.60;99.90
14057;DHT22;7103;54.300;10.180;2022-10-16T04:12:10;12.60;99.90
14057;DHT22;7103;54.300;10.180;2022-10-16T04:14:37;12.60;99.90
14057;DHT22;7103;54.300;10.180;2022-10-16T04:17:03;12.60;99.90
14057;DHT22;7103;54.300;10.180;2022-10-16T04:19:30;12.60;99.90
14057;DHT22;7103;54.300;10.180;2022-10-16T04:21:57;12.60;99.90
14057;DHT22;7103;54.300;10.180;2022-10-16T04:24:24;12.60;99.90
14057;DHT22;7103;54.300;10.180;2022-10-16T04:26:51;12.50;99.90
14057;DHT22;7103;54.300;10.180;2022-10-16T04:29:17;12.50;99.90
14057;DHT22;7103;54.300;10.180;2022-10-16T04:31:44;12.50;99.90
14057;DHT22;7103;54.300;10.180;2022-10-16T04:34:11;12.50;99.90
14057;DHT22;7103;54.300;10.180;2022-10-16T04:36:38;12.50;99.90
14057;DHT22;7103;54.300;10.180;2022-10-16T04:39:05;12.50;99.90
14057;DHT22;7103;54.300;10.180;2022-10-16T04:41:32;12.50;99.90
14057;DHT22;7103;54.300;10.180;2022-10-16T04:43:58;12.50;99.90
14057;DHT22;7103;54.300;10.180;2022-10-16T04:46:25;12.50;99.90
14057;DHT22;7103;54.300;10.180;2022-10-16T04:48:52;12.60;99.90
14057;DHT22;7103;54.300;10.180;2022-10-16T04:51:20;12.60;99.90
14057;DHT22;7103;54.300;10.180;2022-10-16T04:53:47;12.60;99.90
14057;DHT22;7103;54.300;10.180;2022-10-16T04:56:14;12.50;99.90
14057;DHT22;7103;54.300;10.180;2022-10-16T04:58:41;12.60;99.90
14057;DHT22;7103;54.300;10.180;2022-10-16T05:01:08;12.50;99.90
14057;DHT22;7103;54.300;10.180;2022-10-16T05:03:35;12.60;99.90
14057;DHT22;7103;54.300;10.180;2022-10-16T05:06:04;12.60;99.90
14057;DHT22;7103;54.300;10.180;2022-10-16T05:08:31;12.60;99.90
14057;DHT22;7103;54.300;10.180;2022-10-16T05:10:58;12.60;99.90
14057;DHT22;7103;54.300;10.180;2022-10-16T05:13:25;12.60;99.90
14057;DHT22;7103;54.300;10.180;2022-10-16T05:15:51;12.60;99.90
14057;DHT22;7103;54.300;10.180;2022-10-16T05:18:18;12.70;99.90
14057;DHT22;7103;54.300;10.180;2022-10-16T05:20:45;12.60;99.90
14057;DHT22;7103;54.300;10.180;2022-10-16T05:23:12;12.60;99.90
14057;DHT22;7103;54.300;10.180;2022-10-16T05:25:52;12.50;99.90
14057;DHT22;7103;54.300;10.180;2022-10-16T05:28:21;12.60;99.90
14057;DHT22;7103;54.300;10.180;2022-10-16T05:30:48;12.60;99.90
14057;DHT22;7103;54.300;10.180;2022-10-16T05:33:14;12.60;99.90
14057;DHT22;7103;54.300;10.180;2022-10-16T05:35:41;12.60;99.90
14057;DHT22;7103;54.300;10.180;2022-10-16T05:38:08;12.70;99.90
14057;DHT22;7103;54.300;10.180;2022-10-16T05:40:35;12.60;99.90
14057;DHT22;7103;54.300;10.180;2022-10-16T05:43:02;12.60;99.90
14057;DHT22;7103;54.300;10.180;2022-10-16T05:45:29;12.60;99.90
14057;DHT22;7103;54.300;10.180;2022-10-16T05:47:56;12.60;99.90
14057;DHT22;7103;54.300;10.180;2022-10-16T05:50:22;12.60;99.90
14057;DHT22;7103;54.300;10.180;2022-10-16T05:52:49;12.50;99.90
14057;DHT22;7103;54.300;10.180;2022-10-16T05:55:16;12.50;99.90
14057;DHT22;7103;54.300;10.180;2022-10-16T05:57:43;12.60;99.90
14057;DHT22;7103;54.300;10.180;2022-10-16T06:00:10;12.70;99.90
14057;DHT22;7103;54.300;10.180;2022-10-16T06:02:37;12.70;99.90
14057;DHT22;7103;54.300;10.180;2022-10-16T06:05:04;12.70;99.90
14057;DHT22;7103;54.300;10.180;2022-10-16T06:07:34;12.70;99.90
14057;DHT22;7103;54.300;10.180;2022-10-16T06:10:03;12.70;99.90
14057;DHT22;7103;54.300;10.180;2022-10-16T06:12:30;12.70;99.90
14057;DHT22;7103;54.300;10.180;2022-10-16T06:14:57;12.70;99.90
14057;DHT22;7103;54.300;10.180;2022-10-16T06:17:24;12.80;99.90
14057;DHT22;7103;54.300;10.180;2022-10-16T06:19:51;12.70;99.90
14057;DHT22;7103;54.300;10.180;2022-10-16T06:22:18;12.70;99.90
14057;DHT22;7103;54.300;10.180;2022-10-16T06:24:45;12.80;99.90
14057;DHT22;7103;54.300;10.180;2022-10-16T06:27:13;12.70;99.90
14057;DHT22;7103;54.300;10.180;2022-10-16T06:29:39;12.70;99.90
14057;DHT22;7103;54.300;10.180;2022-10-16T06:32:06;12.80;99.90
14057;DHT22;7103;54.300;10.180;2022-10-16T06:34:33;12.90;99.90
14057;DHT22;7103;54.300;10.180;2022-10-16T06:37:01;12.90;99.90
14057;DHT22;7103;54.300;10.180;2022-10-16T06:39:27;13.00;99.90
14057;DHT22;7103;54.300;10.180;2022-10-16T06:41:54;13.00;99.90
14057;DHT22;7103;54.300;10.180;2022-10-16T06:44:21;13.00;99.90
14057;DHT22;7103;54.300;10.180;2022-10-16T06:46:48;13.00;99.90
14057;DHT22;7103;54.300;10.180;2022-10-16T06:49:15;13.00;99.90
14057;DHT22;7103;54.300;10.180;2022-10-16T06:51:48;13.00;99.90
14057;DHT22;7103;54.300;10.180;2022-10-16T06:54:15;13.00;99.90
14057;DHT22;7103;54.300;10.180;2022-10-16T06:56:42;13.10;99.90
14057;DHT22;7103;54.300;10.180;2022-10-16T06:59:09;13.10;99.90
14057;DHT22;7103;54.300;10.180;2022-10-16T07:01:36;13.20;99.90
14057;DHT22;7103;54.300;10.180;2022-10-16T07:04:03;13.20;99.90
14057;DHT22;7103;54.300;10.180;2022-10-16T07:06:32;13.20;99.90
14057;DHT22;7103;54.300;10.180;2022-10-16T07:09:04;13.20;99.90
14057;DHT22;7103;54.300;10.180;2022-10-16T07:11:32;13.30;99.90
14057;DHT22;7103;54.300;10.180;2022-10-16T07:13:59;13.30;99.90
14057;DHT22;7103;54.300;10.180;2022-10-16T07:16:28;13.40;99.90
14057;DHT22;7103;54.300;10.180;2022-10-16T07:18:59;13.40;99.90
14057;DHT22;7103;54.300;10.180;2022-10-16T07:21:29;13.50;99.90
14057;DHT22;7103;54.300;10.180;2022-10-16T07:23:59;13.50;99.90
14057;DHT22;7103;54.300;10.180;2022-10-16T07:26:29;13.50;99.90
14057;DHT22;7103;54.300;10.180;2022-10-16T07:28:57;13.60;99.90
14057;DHT22;7103;54.300;10.180;2022-10-16T07:31:24;13.70;99.90
14057;DHT22;7103;54.300;10.180;2022-10-16T07:33:51;13.70;99.90
14057;DHT22;7103;54.300;10.180;2022-10-16T07:36:19;13.60;99.90
14057;DHT22;7103;54.300;10.180;2022-10-16T07:38:47;13.70;99.90
14057;DHT22;7103;54.300;10.180;2022-10-16T07:41:16;13.80;99.90
14057;DHT22;7103;54.300;10.180;2022-10-16T07:43:47;13.80;99.90
14057;DHT22;7103;54.300;10.180;2022-10-16T07:46:15;13.80;99.90
14057;DHT22;7103;54.300;10.180;2022-10-16T07:48:43;13.80;99.90
14057;DHT22;7103;54.300;10.180;2022-10-16T07:51:18;13.80;99.90
14057;DHT22;7103;54.300;10.180;2022-10-16T07:53:45;13.80;99.90
14057;DHT22;7103;54.300;10.180;2022-10-16T07:56:13;13.90;99.90
14057;DHT22;7103;54.300;10.180;2022-10-16T07:58:40;13.90;99.90
14057;DHT22;7103;54.300;10.180;2022-10-16T08:01:12;13.90;99.90
14057;DHT22;7103;54.300;10.180;2022-10-16T08:03:44;13.90;99.90
14057;DHT22;7103;54.300;10.180;2022-10-16T08:06:12;13.90;99.90
14057;DHT22;7103;54.300;10.180;2022-10-16T08:08:38;14.10;99.90
14057;DHT22;7103;54.300;10.180;2022-10-16T08:11:05;14.20;99.90
14057;DHT22;7103;54.300;10.180;2022-10-16T08:13:32;14.20;99.90
14057;DHT22;7103;54.300;10.180;2022-10-16T08:15:59;14.30;99.90
14057;DHT22;7103;54.300;10.180;2022-10-16T08:18:26;14.60;99.90
14057;DHT22;7103;54.300;10.180;2022-10-16T08:20:58;15.40;99.90
14057;DHT22;7103;54.300;10.180;2022-10-16T08:23:26;16.10;42.90
14057;DHT22;7103;54.300;10.180;2022-10-16T08:26:03;16.10;1.00
14057;DHT22;7103;54.300;10.180;2022-10-16T08:28:30;16.10;1.00
14057;DHT22;7103;54.300;10.180;2022-10-16T08:31:08;15.80;1.00
14057;DHT22;7103;54.300;10.180;2022-10-16T08:33:36;15.40;1.00
14057;DHT22;7103;54.300;10.180;2022-10-16T08:36:04;15.20;8.50
14057;DHT22;7103;54.300;10.180;2022-10-16T08:38:32;15.20;25.00
14057;DHT22;7103;54.300;10.180;2022-10-16T08:47:19;16.30;2.20
14057;DHT22;7103;54.300;10.180;2022-10-16T08:49:59;16.50;1.00
14057;DHT22;7103;54.300;10.180;2022-10-16T08:52:33;16.70;1.00
14057;DHT22;7103;54.300;10.180;2022-10-16T08:55:02;17.20;1.00
14057;DHT22;7103;54.300;10.180;2022-10-16T08:57:30;17.50;1.00
14057;DHT22;7103;54.300;10.180;2022-10-16T09:00:12;17.70;1.00
14057;DHT22;7103;54.300;10.180;2022-10-16T09:02:50;17.70;1.00
14057;DHT22;7103;54.300;10.180;2022-10-16T09:06:05;17.70;1.00
14057;DHT22;7103;54.300;10.180;2022-10-16T09:08:21;17.90;1.00
14057;DHT22;7103;54.300;10.180;2022-10-16T09:10:56;18.20;1.00
14057;DHT22;7103;54.300;10.180;2022-10-16T09:13:28;18.00;1.00
14057;DHT22;7103;54.300;10.180;2022-10-16T09:21:41;18.30;1.00
14057;DHT22;7103;54.300;10.180;2022-10-16T09:24:15;18.40;1.00
14057;DHT22;7103;54.300;10.180;2022-10-16T09:26:43;18.40;1.00
14057;DHT22;7103;54.300;10.180;2022-10-16T09:29:14;18.80;1.00
14057;DHT22;7103;54.300;10.180;2022-10-16T09:31:42;18.70;1.00
14057;DHT22;7103;54.300;10.180;2022-10-16T09:36:46;18.90;1.00
14057;DHT22;7103;54.300;10.180;2022-10-16T09:39:13;18.90;1.00
14057;DHT22;7103;54.300;10.180;2022-10-16T09:41:43;19.00;1.00
14057;DHT22;7103;54.300;10.180;2022-10-16T09:46:46;19.00;1.00
14057;DHT22;7103;54.300;10.180;2022-10-16T09:49:24;18.90;1.00
14057;DHT22;7103;54.300;10.180;2022-10-16T09:52:13;18.80;1.00
14057;DHT22;7103;54.300;10.180;2022-10-16T09:54:54;18.70;1.00
14057;DHT22;7103;54.300;10.180;2022-10-16T09:57:22;18.20;1.00
14057;DHT22;7103;54.300;10.180;2022-10-16T09:59:55;17.90;1.00
14057;DHT22;7103;54.300;10.180;2022-10-16T10:02:33;17.80;1.00
14057;DHT22;7103;54.300;10.180;2022-10-16T10:05:01;17.50;1.00
14057;DHT22;7103;54.300;10.180;2022-10-16T10:07:33;17.50;1.00
14057;DHT22;7103;54.300;10.180;2022-10-16T10:10:04;17.30;1.00
14057;DHT22;7103;54.300;10.180;2022-10-16T10:12:32;17.20;1.00
14057;DHT22;7103;54.300;10.180;2022-10-16T10:15:07;17.30;1.00
14057;DHT22;7103;54.300;10.180;2022-10-16T10:17:46;17.20;1.00
14057;DHT22;7103;54.300;10.180;2022-10-16T10:20:31;17.10;1.00
14057;DHT22;7103;54.300;10.180;2022-10-16T10:23:23;17.10;1.00
14057;DHT22;7103;54.300;10.180;2022-10-16T10:40:23;18.70;1.00
14057;DHT22;7103;54.300;10.180;2022-10-16T10:43:09;18.80;1.00
14057;DHT22;7103;54.300;10.180;2022-10-16T10:45:46;18.80;1.00
14057;DHT22;7103;54.300;10.180;2022-10-16T10:48:18;18.90;1.00
14057;DHT22;7103;54.300;10.180;2022-10-16T10:51:11;18.70;1.00
14057;DHT22;7103;54.300;10.180;2022-10-16T10:53:55;18.40;1.00
14057;DHT22;7103;54.300;10.180;2022-10-16T10:56:56;18.20;1.00
14057;DHT22;7103;54.300;10.180;2022-10-16T11:07:46;18.20;1.00
14057;DHT22;7103;54.300;10.180;2022-10-16T11:10:21;18.00;1.00
14057;DHT22;7103;54.300;10.180;2022-10-16T11:15:44;18.10;1.00
14057;DHT22;7103;54.300;10.180;2022-10-16T11:18:20;18.30;1.00
14057;DHT22;7103;54.300;10.180;2022-10-16T11:20:54;18.30;1.00
14057;DHT22;7103;54.300;10.180;2022-10-16T11:23:30;18.30;1.00
14057;DHT22;7103;54.300;10.180;2022-10-16T11:26:02;17.90;1.00
14057;DHT22;7103;54.300;10.180;2022-10-16T11:28:37;17.80;1.00
14057;DHT22;7103;54.300;10.180;2022-10-16T11:31:15;17.70;1.00
14057;DHT22;7103;54.300;10.180;2022-10-16T11:33:47;17.60;1.00
14057;DHT22;7103;54.300;10.180;2022-10-16T11:36:38;17.40;1.00
14057;DHT22;7103;54.300;10.180;2022-10-16T11:39:17;17.30;1.00
14057;DHT22;7103;54.300;10.180;2022-10-16T11:47:43;17.60;1.00
14057;DHT22;7103;54.300;10.180;2022-10-16T11:54:03;17.80;1.00
14057;DHT22;7103;54.300;10.180;2022-10-16T11:56:12;17.90;1.00
14057;DHT22;7103;54.300;10.180;2022-10-16T11:58:56;18.00;1.00
14057;DHT22;7103;54.300;10.180;2022-10-16T12:01:47;18.00;1.00
14057;DHT22;7103;54.300;10.180;2022-10-16T12:04:33;17.90;1.00
14057;DHT22;7103;54.300;10.180;2022-10-16T12:09:40;18.00;1.00
14057;DHT22;7103;54.300;10.180;2022-10-16T12:15:19;17.60;1.00
14057;DHT22;7103;54.300;10.180;2022-10-16T12:18:01;17.40;1.00
14057;DHT22;7103;54.300;10.180;2022-10-16T12:20:32;17.30;1.00
14057;DHT22;7103;54.300;10.180;2022-10-16T12:23:04;17.10;1.00
14057;DHT22;7103;54.300;10.180;2022-10-16T12:30:41;17.30;1.00
14057;DHT22;7103;54.300;10.180;2022-10-16T12:33:41;17.40;1.00
14057;DHT22;7103;54.300;10.180;2022-10-16T12:36:15;17.50;1.00
14057;DHT22;7103;54.300;10.180;2022-10-16T12:38:49;17.60;1.00
14057;DHT22;7103;54.300;10.180;2022-10-16T12:41:31;17.60;1.00
14057;DHT22;7103;54.300;10.180;2022-10-16T12:44:00;17.70;1.00
14057;DHT22;7103;54.300;10.180;2022-10-16T12:51:43;17.80;1.00
14057;DHT22;7103;54.300;10.180;2022-10-16T12:54:30;17.70;1.00
14057;DHT22;7103;54.300;10.180;2022-10-16T13:18:51;16.80;1.00
14057;DHT22;7103;54.300;10.180;2022-10-16T13:27:28;16.70;1.00
14057;DHT22;7103;54.300;10.180;2022-10-16T13:30:08;16.80;1.00
14057;DHT22;7103;54.300;10.180;2022-10-16T13:32:37;16.80;1.00
14057;DHT22;7103;54.300;10.180;2022-10-16T13:35:25;16.80;1.00
14057;DHT22;7103;54.300;10.180;2022-10-16T13:38:14;17.00;1.00
14057;DHT22;7103;54.300;10.180;2022-10-16T13:41:02;17.00;1.00
14057;DHT22;7103;54.300;10.180;2022-10-16T13:43:39;17.10;1.00
14057;DHT22;7103;54.300;10.180;2022-10-16T13:46:13;17.00;1.00
14057;DHT22;7103;54.300;10.180;2022-10-16T13:48:41;17.00;1.00
14057;DHT22;7103;54.300;10.180;2022-10-16T13:51:18;17.00;1.00
14057;DHT22;7103;54.300;10.180;2022-10-16T13:53:45;16.90;1.00
14057;DHT22;7103;54.300;10.180;2022-10-16T13:56:18;16.80;1.00
14057;DHT22;7103;54.300;10.180;2022-10-16T13:58:57;16.90;1.00
14057;DHT22;7103;54.300;10.180;2022-10-16T14:01:32;16.90;1.00
14057;DHT22;7103;54.300;10.180;2022-10-16T14:04:05;16.90;1.00
14057;DHT22;7103;54.300;10.180;2022-10-16T14:06:34;16.80;1.00
14057;DHT22;7103;54.300;10.180;2022-10-16T14:11:47;16.90;1.00
14057;DHT22;7103;54.300;10.180;2022-10-16T14:14:15;16.90;1.00
14057;DHT22;7103;54.300;10.180;2022-10-16T14:16:43;17.00;1.00
14057;DHT22;7103;54.300;10.180;2022-10-16T14:19:24;17.10;1.00
14057;DHT22;7103;54.300;10.180;2022-10-16T14:21:52;17.00;1.00
14057;DHT22;7103;54.300;10.180;2022-10-16T14:24:39;16.90;1.00
14057;DHT22;7103;54.300;10.180;2022-10-16T14:27:29;16.90;1.00
14057;DHT22;7103;54.300;10.180;2022-10-16T14:30:17;16.90;1.00
14057;DHT22;7103;54.300;10.180;2022-10-16T14:32:55;16.90;1.00
14057;DHT22;7103;54.300;10.180;2022-10-16T14:35:37;16.80;1.00
14057;DHT22;7103;54.300;10.180;2022-10-16T14:38:06;16.80;1.00
14057;DHT22;7103;54.300;10.180;2022-10-16T14:40:36;16.80;1.00
14057;DHT22;7103;54.300;10.180;2022-10-16T14:43:04;16.60;1.00
14057;DHT22;7103;54.300;10.180;2022-10-16T14:45:33;16.60;1.00
14057;DHT22;7103;54.300;10.180;2022-10-16T14:48:04;16.60;1.00
14057;DHT22;7103;54.300;10.180;2022-10-16T14:50:32;16.50;1.00
14057;DHT22;7103;54.300;10.180;2022-10-16T14:52:59;16.50;1.00
14057;DHT22;7103;54.300;10.180;2022-10-16T14:55:26;16.40;1.00
14057;DHT22;7103;54.300;10.180;2022-10-16T14:57:53;16.40;1.00
14057;DHT22;7103;54.300;10.180;2022-10-16T15:00:26;16.40;1.00
14057;DHT22;7103;54.300;10.180;2022-10-16T15:02:53;16.30;1.00
14057;DHT22;7103;54.300;10.180;2022-10-16T15:05:25;16.20;1.00
14057;DHT22;7103;54.300;10.180;2022-10-16T15:07:55;16.20;1.00
14057;DHT22;7103;54.300;10.180;2022-10-16T15:10:24;16.20;1.00
14057;DHT22;7103;54.300;10.180;2022-10-16T15:12:52;16.10;1.00
14057;DHT22;7103;54.300;10.180;2022-10-16T15:17:53;16.10;1.00
14057;DHT22;7103;54.300;10.180;2022-10-16T15:20:35;16.10;1.00
14057;DHT22;7103;54.300;10.180;2022-10-16T15:23:04;16.10;1.00
14057;DHT22;7103;54.300;10.180;2022-10-16T15:25:54;16.00;1.00
14057;DHT22;7103;54.300;10.180;2022-10-16T15:28:22;16.00;1.00
14057;DHT22;7103;54.300;10.180;2022-10-16T15:30:51;15.90;1.00
14057;DHT22;7103;54.300;10.180;2022-10-16T15:33:21;15.80;1.00
14057;DHT22;7103;54.300;10.180;2022-10-16T15:35:51;15.70;1.00
14057;DHT22;7103;54.300;10.180;2022-10-16T15:38:20;15.70;1.00
14057;DHT22;7103;54.300;10.180;2022-10-16T15:40:48;15.60;1.00
14057;DHT22;7103;54.300;10.180;2022-10-16T15:43:15;15.50;1.00
14057;DHT22;7103;54.300;10.180;2022-10-16T15:45:42;15.40;1.00
14057;DHT22;7103;54.300;10.180;2022-10-16T15:48:13;15.40;1.00
14057;DHT22;7103;54.300;10.180;2022-10-16T15:50:40;15.30;1.00
14057;DHT22;7103;54.300;10.180;2022-10-16T15:53:09;15.30;1.00
14057;DHT22;7103;54.300;10.180;2022-10-16T15:55:36;15.20;1.00
14057;DHT22;7103;54.300;10.180;2022-10-16T15:58:04;15.20;1.00
14057;DHT22;7103;54.300;10.180;2022-10-16T16:00:32;15.00;1.00
14057;DHT22;7103;54.300;10.180;2022-10-16T16:02:59;15.00;1.00
14057;DHT22;7103;54.300;10.180;2022-10-16T16:05:25;14.90;1.00
14057;DHT22;7103;54.300;10.180;2022-10-16T16:07:54;14.80;1.00
14057;DHT22;7103;54.300;10.180;2022-10-16T16:10:21;14.70;1.00
14057;DHT22;7103;54.300;10.180;2022-10-16T16:12:49;14.70;1.00
14057;DHT22;7103;54.300;10.180;2022-10-16T16:15:22;14.60;1.00
14057;DHT22;7103;54.300;10.180;2022-10-16T16:17:49;14.60;1.00
14057;DHT22;7103;54.300;10.180;2022-10-16T16:20:16;14.60;1.00
14057;DHT22;7103;54.300;10.180;2022-10-16T16:22:43;14.50;1.00
14057;DHT22;7103;54.300;10.180;2022-10-16T16:25:10;14.40;1.00
14057;DHT22;7103;54.300;10.180;2022-10-16T16:27:37;14.30;1.00
14057;DHT22;7103;54.300;10.180;2022-10-16T16:30:06;14.20;1.00
14057;DHT22;7103;54.300;10.180;2022-10-16T16:32:34;14.20;1.00
14057;DHT22;7103;54.300;10.180;2022-10-16T16:35:02;14.20;1.00
14057;DHT22;7103;54.300;10.180;2022-10-16T16:37:29;14.10;1.00
14057;DHT22;7103;54.300;10.180;2022-10-16T16:39:56;14.10;1.00
14057;DHT22;7103;54.300;10.180;2022-10-16T16:42:28;14.10;1.00
14057;DHT22;7103;54.300;10.180;2022-10-16T16:44:55;14.00;1.00
14057;DHT22;7103;54.300;10.180;2022-10-16T16:47:22;13.90;1.00
14057;DHT22;7103;54.300;10.180;2022-10-16T16:49:49;13.90;1.00
14057;DHT22;7103;54.300;10.180;2022-10-16T16:52:16;13.80;1.00
14057;DHT22;7103;54.300;10.180;2022-10-16T16:54:44;13.80;1.00
14057;DHT22;7103;54.300;10.180;2022-10-16T16:57:19;13.70;1.00
14057;DHT22;7103;54.300;10.180;2022-10-16T16:59:46;13.70;1.00
14057;DHT22;7103;54.300;10.180;2022-10-16T17:02:13;13.60;1.00
14057;DHT22;7103;54.300;10.180;2022-10-16T17:04:40;13.60;1.00
14057;DHT22;7103;54.300;10.180;2022-10-16T17:07:07;13.60;1.00
14057;DHT22;7103;54.300;10.180;2022-10-16T17:09:34;13.60;1.00
14057;DHT22;7103;54.300;10.180;2022-10-16T17:12:01;13.60;1.00
14057;DHT22;7103;54.300;10.180;2022-10-16T17:14:28;13.60;1.00
14057;DHT22;7103;54.300;10.180;2022-10-16T17:16:55;13.60;1.00
14057;DHT22;7103;54.300;10.180;2022-10-16T17:19:22;13.50;1.00
14057;DHT22;7103;54.300;10.180;2022-10-16T17:21:49;13.50;1.00
14057;DHT22;7103;54.300;10.180;2022-10-16T17:24:17;13.50;1.00
14057;DHT22;7103;54.300;10.180;2022-10-16T17:26:45;13.40;1.00
14057;DHT22;7103;54.300;10.180;2022-10-16T17:29:16;13.30;1.00
14057;DHT22;7103;54.300;10.180;2022-10-16T17:31:44;13.30;1.00
14057;DHT22;7103;54.300;10.180;2022-10-16T17:34:11;13.20;1.00
14057;DHT22;7103;54.300;10.180;2022-10-16T17:36:39;13.20;1.00
14057;DHT22;7103;54.300;10.180;2022-10-16T17:39:12;13.10;1.00
14057;DHT22;7103;54.300;10.180;2022-10-16T17:41:39;13.00;1.00
14057;DHT22;7103;54.300;10.180;2022-10-16T17:44:07;13.00;1.00
14057;DHT22;7103;54.300;10.180;2022-10-16T17:46:34;13.00;1.00
14057;DHT22;7103;54.300;10.180;2022-10-16T17:49:08;13.10;1.00
14057;DHT22;7103;54.300;10.180;2022-10-16T17:51:35;13.10;1.00
14057;DHT22;7103;54.300;10.180;2022-10-16T17:54:02;13.00;1.00
14057;DHT22;7103;54.300;10.180;2022-10-16T17:56:29;12.90;1.00